Terminal Aerodrome Forecast
Issued by NWS Sioux Falls, SD

Home | Current Version | Previous Version | Graphics & Text | Print | Product List | Glossary On
Versions: 1 2 3 4 5 6 7 8 9 10 11 12 13 14 15
000
FTUS43 KFSD 271131
TAFHON
TAF
KHON 271131Z 2712/2812 VRB04KT P6SM BKN150
     FM271500 16010KT P6SM BKN090
     FM272000 16012KT P6SM BKN035 PROB30 2721/2723 6SM -SN SCT025
      OVC035
     FM280300 12008KT P6SM SCT025 BKN040=

USA.gov is the U.S. government's official web portal to all federal, state and local government web resources and services.